sensor_id;sensor_type;location;lat;lon;timestamp;pressure;altitude;pressure_sealevel;temperature;humidity
61359;BME280;47228;46.762;23.598;2023-01-26T00:01:44;97958.79;;;-0.95;65.30
61359;BME280;47228;46.762;23.598;2023-01-26T00:04:12;97957.48;;;-0.96;65.01
61359;BME280;47228;46.762;23.598;2023-01-26T00:06:40;97950.17;;;-0.96;65.00
61359;BME280;47228;46.762;23.598;2023-01-26T00:09:11;97948.53;;;-0.97;64.66
61359;BME280;47228;46.762;23.598;2023-01-26T00:11:40;97949.50;;;-0.98;64.90
61359;BME280;47228;46.762;23.598;2023-01-26T00:14:08;97948.64;;;-0.98;65.24
61359;BME280;47228;46.762;23.598;2023-01-26T00:16:36;97944.80;;;-0.98;64.82
61359;BME280;47228;46.762;23.598;2023-01-26T00:19:04;97941.63;;;-0.97;65.17
61359;BME280;47228;46.762;23.598;2023-01-26T00:21:32;97941.94;;;-0.97;65.09
61359;BME280;47228;46.762;23.598;2023-01-26T00:24:00;97942.14;;;-0.95;65.29
61359;BME280;47228;46.762;23.598;2023-01-26T00:26:28;97941.26;;;-0.93;65.56
61359;BME280;47228;46.762;23.598;2023-01-26T00:28:59;97941.02;;;-0.89;65.80
61359;BME280;47228;46.762;23.598;2023-01-26T00:31:27;97933.85;;;-0.86;66.22
61359;BME280;47228;46.762;23.598;2023-01-26T00:33:56;97933.27;;;-0.83;66.57
61359;BME280;47228;46.762;23.598;2023-01-26T00:36:24;97927.50;;;-0.81;66.84
61359;BME280;47228;46.762;23.598;2023-01-26T00:38:52;97929.54;;;-0.77;66.95
61359;BME280;47228;46.762;23.598;2023-01-26T00:41:20;97928.02;;;-0.76;66.47
61359;BME280;47228;46.762;23.598;2023-01-26T00:44:06;97928.20;;;-0.76;66.32
61359;BME280;47228;46.762;23.598;2023-01-26T00:46:34;97925.71;;;-0.75;66.58
61359;BME280;47228;46.762;23.598;2023-01-26T00:49:05;97921.22;;;-0.76;66.30
61359;BME280;47228;46.762;23.598;2023-01-26T00:51:32;97919.06;;;-0.77;66.08
61359;BME280;47228;46.762;23.598;2023-01-26T00:54:00;97924.02;;;-0.78;66.19
61359;BME280;47228;46.762;23.598;2023-01-26T00:56:28;97921.12;;;-0.79;65.93
61359;BME280;47228;46.762;23.598;2023-01-26T00:58:56;97914.58;;;-0.82;65.93
61359;BME280;47228;46.762;23.598;2023-01-26T01:01:24;97915.84;;;-0.87;66.32
61359;BME280;47228;46.762;23.598;2023-01-26T01:03:52;97916.98;;;-0.91;66.60
61359;BME280;47228;46.762;23.598;2023-01-26T01:06:20;97909.79;;;-0.93;66.84
61359;BME280;47228;46.762;23.598;2023-01-26T01:08:48;97907.59;;;-0.94;66.90
61359;BME280;47228;46.762;23.598;2023-01-26T01:11:16;97905.08;;;-0.93;66.93
61359;BME280;47228;46.762;23.598;2023-01-26T01:13:44;97906.14;;;-0.90;66.89
61359;BME280;47228;46.762;23.598;2023-01-26T01:16:13;97902.99;;;-0.88;66.82
61359;BME280;47228;46.762;23.598;2023-01-26T01:18:42;97901.06;;;-0.85;66.85
61359;BME280;47228;46.762;23.598;2023-01-26T01:21:13;97902.32;;;-0.81;66.79
61359;BME280;47228;46.762;23.598;2023-01-26T01:23:42;97899.42;;;-0.77;66.89
61359;BME280;47228;46.762;23.598;2023-01-26T01:26:11;97900.04;;;-0.76;66.79
61359;BME280;47228;46.762;23.598;2023-01-26T01:28:40;97898.20;;;-0.75;66.85
61359;BME280;47228;46.762;23.598;2023-01-26T01:31:11;97896.33;;;-0.73;66.44
61359;BME280;47228;46.762;23.598;2023-01-26T01:33:40;97894.95;;;-0.73;66.10
61359;BME280;47228;46.762;23.598;2023-01-26T01:36:11;97892.83;;;-0.73;66.05
61359;BME280;47228;46.762;23.598;2023-01-26T01:38:40;97888.58;;;-0.74;66.02
61359;BME280;47228;46.762;23.598;2023-01-26T01:41:10;97882.57;;;-0.75;65.89
61359;BME280;47228;46.762;23.598;2023-01-26T01:43:38;97870.55;;;-0.77;65.69
61359;BME280;47228;46.762;23.598;2023-01-26T01:46:16;97868.73;;;-0.81;65.79
61359;BME280;47228;46.762;23.598;2023-01-26T01:49:14;97871.66;;;-0.83;66.13
61359;BME280;47228;46.762;23.598;2023-01-26T01:51:53;97869.79;;;-0.85;66.15
61359;BME280;47228;46.762;23.598;2023-01-26T01:54:29;97860.05;;;-0.88;65.88
61359;BME280;47228;46.762;23.598;2023-01-26T01:57:03;97859.17;;;-0.90;65.78
61359;BME280;47228;46.762;23.598;2023-01-26T01:59:33;97854.55;;;-0.91;65.92
61359;BME280;47228;46.762;23.598;2023-01-26T02:02:01;97855.20;;;-0.93;65.76
61359;BME280;47228;46.762;23.598;2023-01-26T02:04:29;97852.70;;;-0.94;65.61
61359;BME280;47228;46.762;23.598;2023-01-26T02:06:57;97853.27;;;-0.95;65.54
61359;BME280;47228;46.762;23.598;2023-01-26T02:09:35;97850.36;;;-0.98;65.53
61359;BME280;47228;46.762;23.598;2023-01-26T02:12:28;97842.30;;;-0.99;65.85
61359;BME280;47228;46.762;23.598;2023-01-26T02:14:57;97837.23;;;-1.01;65.87
61359;BME280;47228;46.762;23.598;2023-01-26T02:17:25;97832.46;;;-1.00;65.77
61359;BME280;47228;46.762;23.598;2023-01-26T02:22:41;97823.77;;;-0.95;65.82
61359;BME280;47228;46.762;23.598;2023-01-26T02:27:47;97819.48;;;-0.94;65.66
61359;BME280;47228;46.762;23.598;2023-01-26T02:30:16;97814.72;;;-0.93;65.75
61359;BME280;47228;46.762;23.598;2023-01-26T02:32:44;97812.16;;;-0.92;65.88
61359;BME280;47228;46.762;23.598;2023-01-26T02:35:12;97810.14;;;-0.90;65.69
61359;BME280;47228;46.762;23.598;2023-01-26T02:37:39;97807.73;;;-0.90;65.89
61359;BME280;47228;46.762;23.598;2023-01-26T02:42:58;97803.92;;;-0.88;66.40
61359;BME280;47228;46.762;23.598;2023-01-26T02:45:28;97807.09;;;-0.89;66.47
61359;BME280;47228;46.762;23.598;2023-01-26T02:47:56;97806.25;;;-0.89;66.43
61359;BME280;47228;46.762;23.598;2023-01-26T02:50:26;97799.56;;;-0.90;66.47
61359;BME280;47228;46.762;23.598;2023-01-26T02:52:54;97799.70;;;-0.92;66.59
61359;BME280;47228;46.762;23.598;2023-01-26T02:55:22;97794.95;;;-0.94;66.34
61359;BME280;47228;46.762;23.598;2023-01-26T02:57:54;97794.20;;;-0.97;66.35
61359;BME280;47228;46.762;23.598;2023-01-26T03:00:31;97790.52;;;-0.99;66.41
61359;BME280;47228;46.762;23.598;2023-01-26T03:03:11;97784.11;;;-1.02;66.61
61359;BME280;47228;46.762;23.598;2023-01-26T03:05:41;97782.98;;;-1.03;66.57
61359;BME280;47228;46.762;23.598;2023-01-26T03:08:09;97783.69;;;-1.03;66.52
61359;BME280;47228;46.762;23.598;2023-01-26T03:10:37;97779.77;;;-1.02;66.85
61359;BME280;47228;46.762;23.598;2023-01-26T03:13:05;97777.89;;;-1.02;66.99
61359;BME280;47228;46.762;23.598;2023-01-26T03:15:33;97777.97;;;-1.01;66.65
61359;BME280;47228;46.762;23.598;2023-01-26T03:18:12;97777.45;;;-1.01;66.35
61359;BME280;47228;46.762;23.598;2023-01-26T03:21:04;97770.88;;;-1.02;66.39
61359;BME280;47228;46.762;23.598;2023-01-26T03:23:50;97771.16;;;-1.01;66.80
61359;BME280;47228;46.762;23.598;2023-01-26T03:26:38;97766.25;;;-1.02;66.20
61359;BME280;47228;46.762;23.598;2023-01-26T03:29:25;97762.10;;;-1.05;66.61
61359;BME280;47228;46.762;23.598;2023-01-26T03:31:53;97760.24;;;-1.06;66.76
61359;BME280;47228;46.762;23.598;2023-01-26T03:34:21;97758.86;;;-1.06;67.21
61359;BME280;47228;46.762;23.598;2023-01-26T03:36:49;97758.14;;;-1.06;67.20
61359;BME280;47228;46.762;23.598;2023-01-26T03:39:17;97756.44;;;-1.06;66.92
61359;BME280;47228;46.762;23.598;2023-01-26T03:42:04;97751.05;;;-1.11;66.13
61359;BME280;47228;46.762;23.598;2023-01-26T03:44:50;97752.45;;;-1.13;66.20
61359;BME280;47228;46.762;23.598;2023-01-26T03:47:37;97752.15;;;-1.14;66.39
61359;BME280;47228;46.762;23.598;2023-01-26T03:50:24;97744.48;;;-1.14;66.37
61359;BME280;47228;46.762;23.598;2023-01-26T03:53:22;97743.71;;;-1.12;66.54
61359;BME280;47228;46.762;23.598;2023-01-26T03:56:10;97745.93;;;-1.12;66.62
61359;BME280;47228;46.762;23.598;2023-01-26T03:59:00;97740.71;;;-1.12;66.60
61359;BME280;47228;46.762;23.598;2023-01-26T04:01:38;97741.80;;;-1.12;66.29
61359;BME280;47228;46.762;23.598;2023-01-26T04:04:07;97733.98;;;-1.13;66.30
61359;BME280;47228;46.762;23.598;2023-01-26T04:06:54;97735.14;;;-1.12;65.17
61359;BME280;47228;46.762;23.598;2023-01-26T04:09:40;97738.85;;;-1.10;65.94
61359;BME280;47228;46.762;23.598;2023-01-26T04:12:08;97734.95;;;-1.07;66.33
61359;BME280;47228;46.762;23.598;2023-01-26T04:14:37;97734.22;;;-1.04;66.26
61359;BME280;47228;46.762;23.598;2023-01-26T04:17:23;97734.95;;;-1.02;66.06
61359;BME280;47228;46.762;23.598;2023-01-26T04:20:10;97724.57;;;-1.03;65.77
61359;BME280;47228;46.762;23.598;2023-01-26T04:22:56;97722.58;;;-1.05;65.83
61359;BME280;47228;46.762;23.598;2023-01-26T04:25:24;97720.77;;;-1.04;66.10
61359;BME280;47228;46.762;23.598;2023-01-26T04:27:52;97721.38;;;-1.02;66.40
61359;BME280;47228;46.762;23.598;2023-01-26T04:30:20;97719.92;;;-1.03;66.37
61359;BME280;47228;46.762;23.598;2023-01-26T04:32:49;97724.11;;;-1.04;66.57
61359;BME280;47228;46.762;23.598;2023-01-26T04:35:18;97725.98;;;-1.03;66.50
61359;BME280;47228;46.762;23.598;2023-01-26T04:37:46;97725.05;;;-1.02;66.59
61359;BME280;47228;46.762;23.598;2023-01-26T04:40:14;97720.95;;;-1.01;66.85
61359;BME280;47228;46.762;23.598;2023-01-26T04:42:42;97717.77;;;-1.01;66.86
61359;BME280;47228;46.762;23.598;2023-01-26T04:45:10;97715.87;;;-1.01;66.95
61359;BME280;47228;46.762;23.598;2023-01-26T04:47:38;97711.72;;;-1.03;66.81
61359;BME280;47228;46.762;23.598;2023-01-26T04:50:06;97703.44;;;-1.04;67.10
61359;BME280;47228;46.762;23.598;2023-01-26T04:52:35;97705.30;;;-1.03;66.98
61359;BME280;47228;46.762;23.598;2023-01-26T04:55:03;97709.09;;;-1.01;67.17
61359;BME280;47228;46.762;23.598;2023-01-26T04:57:31;97711.72;;;-0.97;67.42
61359;BME280;47228;46.762;23.598;2023-01-26T04:59:59;97716.77;;;-0.92;67.60
61359;BME280;47228;46.762;23.598;2023-01-26T05:02:27;97717.11;;;-0.90;67.40
61359;BME280;47228;46.762;23.598;2023-01-26T05:04:54;97715.13;;;-0.89;67.31
61359;BME280;47228;46.762;23.598;2023-01-26T05:07:22;97714.83;;;-0.87;67.33
61359;BME280;47228;46.762;23.598;2023-01-26T05:09:50;97712.39;;;-0.87;67.23
61359;BME280;47228;46.762;23.598;2023-01-26T05:12:18;97708.77;;;-0.90;66.98
61359;BME280;47228;46.762;23.598;2023-01-26T05:15:04;97710.26;;;-0.94;67.06
61359;BME280;47228;46.762;23.598;2023-01-26T05:17:32;97712.30;;;-0.95;67.00
61359;BME280;47228;46.762;23.598;2023-01-26T05:20:00;97706.14;;;-0.97;66.83
61359;BME280;47228;46.762;23.598;2023-01-26T05:22:28;97706.56;;;-0.98;66.83
61359;BME280;47228;46.762;23.598;2023-01-26T05:24:56;97704.92;;;-0.98;66.83
61359;BME280;47228;46.762;23.598;2023-01-26T05:27:24;97704.23;;;-1.01;66.97
61359;BME280;47228;46.762;23.598;2023-01-26T05:29:53;97709.98;;;-1.01;66.95
61359;BME280;47228;46.762;23.598;2023-01-26T05:32:27;97710.02;;;-1.01;67.18
61359;BME280;47228;46.762;23.598;2023-01-26T05:34:55;97703.33;;;-1.00;67.29
61359;BME280;47228;46.762;23.598;2023-01-26T05:37:27;97703.30;;;-1.00;67.36
61359;BME280;47228;46.762;23.598;2023-01-26T05:39:55;97704.89;;;-1.01;67.33
61359;BME280;47228;46.762;23.598;2023-01-26T05:42:24;97703.48;;;-1.02;67.07
61359;BME280;47228;46.762;23.598;2023-01-26T05:44:52;97704.57;;;-1.03;67.15
61359;BME280;47228;46.762;23.598;2023-01-26T05:47:20;97703.73;;;-1.01;67.22
61359;BME280;47228;46.762;23.598;2023-01-26T05:49:48;97699.38;;;-0.99;67.53
61359;BME280;47228;46.762;23.598;2023-01-26T05:52:19;97700.27;;;-0.97;67.61
61359;BME280;47228;46.762;23.598;2023-01-26T05:54:47;97702.30;;;-0.96;67.52
61359;BME280;47228;46.762;23.598;2023-01-26T05:57:15;97700.62;;;-0.95;67.54
61359;BME280;47228;46.762;23.598;2023-01-26T05:59:46;97700.83;;;-0.95;67.42
61359;BME280;47228;46.762;23.598;2023-01-26T06:02:15;97700.21;;;-0.96;67.53
61359;BME280;47228;46.762;23.598;2023-01-26T06:04:43;97701.36;;;-0.97;67.61
61359;BME280;47228;46.762;23.598;2023-01-26T06:07:11;97704.38;;;-0.98;67.57
61359;BME280;47228;46.762;23.598;2023-01-26T06:09:40;97703.90;;;-0.99;67.40
61359;BME280;47228;46.762;23.598;2023-01-26T06:12:16;97701.25;;;-1.00;67.28
61359;BME280;47228;46.762;23.598;2023-01-26T06:14:44;97698.52;;;-1.03;67.14
61359;BME280;47228;46.762;23.598;2023-01-26T06:17:15;97697.11;;;-1.05;67.40
61359;BME280;47228;46.762;23.598;2023-01-26T06:19:43;97701.36;;;-1.07;67.83
61359;BME280;47228;46.762;23.598;2023-01-26T06:22:12;97699.44;;;-1.08;67.89
61359;BME280;47228;46.762;23.598;2023-01-26T06:24:40;97699.05;;;-1.10;67.85
61359;BME280;47228;46.762;23.598;2023-01-26T06:27:12;97694.31;;;-1.10;67.88
61359;BME280;47228;46.762;23.598;2023-01-26T06:29:41;97698.38;;;-1.08;67.71
61359;BME280;47228;46.762;23.598;2023-01-26T06:32:12;97697.60;;;-1.07;67.57
61359;BME280;47228;46.762;23.598;2023-01-26T06:34:40;97697.03;;;-1.07;67.53
61359;BME280;47228;46.762;23.598;2023-01-26T06:37:08;97695.11;;;-1.07;67.58
61359;BME280;47228;46.762;23.598;2023-01-26T06:39:36;97693.16;;;-1.06;68.04
61359;BME280;47228;46.762;23.598;2023-01-26T06:42:06;97696.09;;;-1.03;68.04
61359;BME280;47228;46.762;23.598;2023-01-26T06:44:34;97695.81;;;-1.00;67.92
61359;BME280;47228;46.762;23.598;2023-01-26T06:47:04;97696.33;;;-0.98;67.69
61359;BME280;47228;46.762;23.598;2023-01-26T06:49:32;97697.33;;;-0.97;67.43
61359;BME280;47228;46.762;23.598;2023-01-26T06:52:24;97698.86;;;-0.97;67.46
61359;BME280;47228;46.762;23.598;2023-01-26T06:54:57;97698.06;;;-0.98;67.36
61359;BME280;47228;46.762;23.598;2023-01-26T06:57:25;97700.01;;;-0.98;67.17
61359;BME280;47228;46.762;23.598;2023-01-26T06:59:53;97698.57;;;-0.99;67.16
61359;BME280;47228;46.762;23.598;2023-01-26T07:02:24;97701.65;;;-1.01;67.21
61359;BME280;47228;46.762;23.598;2023-01-26T07:04:52;97700.63;;;-1.01;67.48
61359;BME280;47228;46.762;23.598;2023-01-26T07:07:20;97704.33;;;-1.00;67.28
61359;BME280;47228;46.762;23.598;2023-01-26T07:09:48;97702.09;;;-0.98;67.18
61359;BME280;47228;46.762;23.598;2023-01-26T07:12:16;97703.92;;;-0.95;67.20
61359;BME280;47228;46.762;23.598;2023-01-26T07:14:44;97707.19;;;-0.90;67.34
61359;BME280;47228;46.762;23.598;2023-01-26T07:17:12;97704.88;;;-0.85;67.25
61359;BME280;47228;46.762;23.598;2023-01-26T07:19:40;97704.80;;;-0.79;67.25
61359;BME280;47228;46.762;23.598;2023-01-26T07:22:08;97701.45;;;-0.74;67.10
61359;BME280;47228;46.762;23.598;2023-01-26T07:24:36;97701.13;;;-0.70;67.06
61359;BME280;47228;46.762;23.598;2023-01-26T07:27:04;97695.98;;;-0.67;67.32
61359;BME280;47228;46.762;23.598;2023-01-26T07:29:32;97694.61;;;-0.62;67.18
61359;BME280;47228;46.762;23.598;2023-01-26T07:32:00;97693.80;;;-0.59;66.74
61359;BME280;47228;46.762;23.598;2023-01-26T07:34:28;97695.59;;;-0.57;66.65
61359;BME280;47228;46.762;23.598;2023-01-26T07:36:56;97694.66;;;-0.57;66.49
61359;BME280;47228;46.762;23.598;2023-01-26T07:39:24;97688.84;;;-0.56;66.48
61359;BME280;47228;46.762;23.598;2023-01-26T07:41:54;97681.10;;;-0.55;66.25
61359;BME280;47228;46.762;23.598;2023-01-26T07:44:22;97684.84;;;-0.54;66.09
61359;BME280;47228;46.762;23.598;2023-01-26T07:46:50;97690.23;;;-0.51;66.20
61359;BME280;47228;46.762;23.598;2023-01-26T07:49:18;97689.08;;;-0.48;66.27
61359;BME280;47228;46.762;23.598;2023-01-26T07:51:45;97690.79;;;-0.45;66.05
61359;BME280;47228;46.762;23.598;2023-01-26T07:54:13;97691.09;;;-0.43;65.56
61359;BME280;47228;46.762;23.598;2023-01-26T07:56:41;97689.99;;;-0.39;65.44
61359;BME280;47228;46.762;23.598;2023-01-26T07:59:11;97691.70;;;-0.35;65.66
61359;BME280;47228;46.762;23.598;2023-01-26T08:01:39;97691.58;;;-0.29;65.54
61359;BME280;47228;46.762;23.598;2023-01-26T08:04:07;97691.23;;;-0.24;65.07
61359;BME280;47228;46.762;23.598;2023-01-26T08:06:35;97691.80;;;-0.21;64.84
61359;BME280;47228;46.762;23.598;2023-01-26T08:09:03;97692.23;;;-0.15;64.81
61359;BME280;47228;46.762;23.598;2023-01-26T08:11:31;97692.02;;;-0.11;64.61
61359;BME280;47228;46.762;23.598;2023-01-26T08:13:59;97688.96;;;-0.07;64.60
61359;BME280;47228;46.762;23.598;2023-01-26T08:16:27;97688.79;;;-0.03;64.24
61359;BME280;47228;46.762;23.598;2023-01-26T08:18:55;97691.06;;;0.01;63.82
61359;BME280;47228;46.762;23.598;2023-01-26T08:21:23;97690.46;;;0.04;63.68
61359;BME280;47228;46.762;23.598;2023-01-26T08:23:51;97690.83;;;0.04;63.69
61359;BME280;47228;46.762;23.598;2023-01-26T08:26:19;97687.66;;;0.02;63.78
61359;BME280;47228;46.762;23.598;2023-01-26T08:28:48;97688.18;;;-0.02;63.33
61359;BME280;47228;46.762;23.598;2023-01-26T08:31:18;97692.31;;;-0.06;63.34
61359;BME280;47228;46.762;23.598;2023-01-26T08:33:48;97695.27;;;-0.06;63.50
61359;BME280;47228;46.762;23.598;2023-01-26T08:36:18;97695.24;;;-0.03;63.49
61359;BME280;47228;46.762;23.598;2023-01-26T08:38:50;97693.95;;;-0.03;62.86
61359;BME280;47228;46.762;23.598;2023-01-26T08:41:18;97694.60;;;-0.02;62.70
61359;BME280;47228;46.762;23.598;2023-01-26T08:43:46;97695.71;;;-0.00;62.60
61359;BME280;47228;46.762;23.598;2023-01-26T08:46:14;97696.44;;;-0.01;62.27
61359;BME280;47228;46.762;23.598;2023-01-26T08:48:43;97696.92;;;-0.01;62.10
61359;BME280;47228;46.762;23.598;2023-01-26T08:51:10;97699.52;;;0.00;61.95
61359;BME280;47228;46.762;23.598;2023-01-26T08:53:38;97691.37;;;-0.01;62.05
61359;BME280;47228;46.762;23.598;2023-01-26T08:56:09;97694.61;;;0.00;62.12
61359;BME280;47228;46.762;23.598;2023-01-26T08:58:37;97692.94;;;0.02;62.28
61359;BME280;47228;46.762;23.598;2023-01-26T09:01:14;97688.42;;;0.03;61.81
61359;BME280;47228;46.762;23.598;2023-01-26T09:03:42;97680.60;;;0.06;61.49
61359;BME280;47228;46.762;23.598;2023-01-26T09:06:12;97678.36;;;0.09;62.10
61359;BME280;47228;46.762;23.598;2023-01-26T09:08:41;97676.45;;;0.13;61.89
61359;BME280;47228;46.762;23.598;2023-01-26T09:11:10;97671.66;;;0.17;61.80
61359;BME280;47228;46.762;23.598;2023-01-26T09:13:38;97664.09;;;0.20;61.70
61359;BME280;47228;46.762;23.598;2023-01-26T09:16:12;97660.95;;;0.22;61.80
61359;BME280;47228;46.762;23.598;2023-01-26T09:18:42;97658.70;;;0.22;61.73
61359;BME280;47228;46.762;23.598;2023-01-26T09:21:10;97654.59;;;0.23;61.59
61359;BME280;47228;46.762;23.598;2023-01-26T09:23:39;97652.05;;;0.27;61.86
61359;BME280;47228;46.762;23.598;2023-01-26T09:26:07;97653.48;;;0.30;61.88
61359;BME280;47228;46.762;23.598;2023-01-26T09:28:35;97653.54;;;0.33;61.25
61359;BME280;47228;46.762;23.598;2023-01-26T09:31:04;97655.38;;;0.32;61.10
61359;BME280;47228;46.762;23.598;2023-01-26T09:33:33;97655.51;;;0.35;61.36
61359;BME280;47228;46.762;23.598;2023-01-26T09:36:06;97650.69;;;0.36;60.86
61359;BME280;47228;46.762;23.598;2023-01-26T09:38:35;97651.38;;;0.36;60.48
61359;BME280;47228;46.762;23.598;2023-01-26T09:43:49;97639.20;;;0.32;60.54
61359;BME280;47228;46.762;23.598;2023-01-26T09:49:07;97632.52;;;0.35;60.78
61359;BME280;47228;46.762;23.598;2023-01-26T09:51:43;97630.76;;;0.37;61.00
61359;BME280;47228;46.762;23.598;2023-01-26T09:56:47;97629.43;;;0.45;60.98
61359;BME280;47228;46.762;23.598;2023-01-26T10:04:44;97619.31;;;0.57;60.55
61359;BME280;47228;46.762;23.598;2023-01-26T10:07:14;97618.00;;;0.56;60.16
61359;BME280;47228;46.762;23.598;2023-01-26T10:09:46;97609.83;;;0.56;60.23
61359;BME280;47228;46.762;23.598;2023-01-26T10:12:23;97604.44;;;0.60;60.70
61359;BME280;47228;46.762;23.598;2023-01-26T10:15:06;97604.92;;;0.64;60.71
61359;BME280;47228;46.762;23.598;2023-01-26T10:17:41;97601.33;;;0.66;60.32
61359;BME280;47228;46.762;23.598;2023-01-26T10:20:20;97598.96;;;0.67;60.12
61359;BME280;47228;46.762;23.598;2023-01-26T10:22:54;97596.14;;;0.69;59.89
61359;BME280;47228;46.762;23.598;2023-01-26T10:25:37;97595.64;;;0.71;59.79
61359;BME280;47228;46.762;23.598;2023-01-26T10:28:11;97589.01;;;0.73;60.11
61359;BME280;47228;46.762;23.598;2023-01-26T10:30:42;97583.04;;;0.77;59.99
61359;BME280;47228;46.762;23.598;2023-01-26T10:33:35;97582.93;;;0.83;59.90
61359;BME280;47228;46.762;23.598;2023-01-26T10:36:04;97579.17;;;0.90;59.90
61359;BME280;47228;46.762;23.598;2023-01-26T10:41:06;97571.78;;;1.03;59.65
61359;BME280;47228;46.762;23.598;2023-01-26T10:43:50;97561.84;;;1.09;59.15
61359;BME280;47228;46.762;23.598;2023-01-26T10:48:53;97560.13;;;1.20;58.75
61359;BME280;47228;46.762;23.598;2023-01-26T10:51:30;97561.08;;;1.25;58.30
61359;BME280;47228;46.762;23.598;2023-01-26T10:56:54;97555.71;;;1.25;57.78
61359;BME280;47228;46.762;23.598;2023-01-26T11:01:56;97542.00;;;1.20;57.56
61359;BME280;47228;46.762;23.598;2023-01-26T11:04:27;97532.74;;;1.20;57.93
61359;BME280;47228;46.762;23.598;2023-01-26T11:06:55;97529.71;;;1.21;57.95
61359;BME280;47228;46.762;23.598;2023-01-26T11:09:26;97528.25;;;1.22;57.74
61359;BME280;47228;46.762;23.598;2023-01-26T11:12:00;97521.27;;;1.23;57.71
61359;BME280;47228;46.762;23.598;2023-01-26T11:14:28;97517.72;;;1.26;57.92
61359;BME280;47228;46.762;23.598;2023-01-26T11:17:00;97517.54;;;1.28;57.47
61359;BME280;47228;46.762;23.598;2023-01-26T11:25:26;97503.20;;;1.32;57.36
61359;BME280;47228;46.762;23.598;2023-01-26T11:30:41;97512.02;;;1.37;57.31
61359;BME280;47228;46.762;23.598;2023-01-26T11:38:50;97493.21;;;1.37;56.79
61359;BME280;47228;46.762;23.598;2023-01-26T11:44:28;97486.15;;;1.34;57.00
61359;BME280;47228;46.762;23.598;2023-01-26T11:47:30;97485.84;;;1.31;56.93
61359;BME280;47228;46.762;23.598;2023-01-26T11:50:18;97485.93;;;1.31;56.95
61359;BME280;47228;46.762;23.598;2023-01-26T12:01:22;97464.70;;;1.28;57.09
61359;BME280;47228;46.762;23.598;2023-01-26T12:03:51;97462.19;;;1.27;56.94
61359;BME280;47228;46.762;23.598;2023-01-26T12:06:39;97457.42;;;1.25;56.82
61359;BME280;47228;46.762;23.598;2023-01-26T12:09:20;97453.91;;;1.26;56.91
61359;BME280;47228;46.762;23.598;2023-01-26T12:14:36;97455.86;;;1.27;56.89
61359;BME280;47228;46.762;23.598;2023-01-26T12:23:03;97451.17;;;1.33;56.92
61359;BME280;47228;46.762;23.598;2023-01-26T12:25:33;97443.80;;;1.33;56.79
61359;BME280;47228;46.762;23.598;2023-01-26T12:33:48;97432.42;;;1.36;56.89
61359;BME280;47228;46.762;23.598;2023-01-26T12:37:20;97422.95;;;1.36;56.67
61359;BME280;47228;46.762;23.598;2023-01-26T12:39:34;97420.27;;;1.35;56.73
61359;BME280;47228;46.762;23.598;2023-01-26T12:47:15;97425.12;;;1.35;56.40
61359;BME280;47228;46.762;23.598;2023-01-26T12:52:42;97424.66;;;1.35;57.21
61359;BME280;47228;46.762;23.598;2023-01-26T12:55:19;97427.60;;;1.35;57.26
61359;BME280;47228;46.762;23.598;2023-01-26T12:57:55;97425.81;;;1.35;57.41
61359;BME280;47228;46.762;23.598;2023-01-26T13:00:28;97420.95;;;1.37;57.40
61359;BME280;47228;46.762;23.598;2023-01-26T13:03:15;97416.46;;;1.38;57.08
61359;BME280;47228;46.762;23.598;2023-01-26T13:06:25;97415.39;;;1.37;56.74
61359;BME280;47228;46.762;23.598;2023-01-26T13:09:24;97412.45;;;1.35;56.71
61359;BME280;47228;46.762;23.598;2023-01-26T13:11:57;97408.54;;;1.33;56.79
61359;BME280;47228;46.762;23.598;2023-01-26T13:19:54;97401.08;;;1.29;56.69
61359;BME280;47228;46.762;23.598;2023-01-26T13:35:19;97390.76;;;1.29;57.04
61359;BME280;47228;46.762;23.598;2023-01-26T13:40:39;97387.34;;;1.29;57.27
61359;BME280;47228;46.762;23.598;2023-01-26T13:43:32;97389.93;;;1.29;57.33
61359;BME280;47228;46.762;23.598;2023-01-26T13:48:46;97387.87;;;1.27;57.39
61359;BME280;47228;46.762;23.598;2023-01-26T13:56:34;97377.65;;;1.26;57.56
61359;BME280;47228;46.762;23.598;2023-01-26T13:59:14;97375.02;;;1.28;57.73
61359;BME280;47228;46.762;23.598;2023-01-26T14:01:51;97373.56;;;1.31;57.55
61359;BME280;47228;46.762;23.598;2023-01-26T14:04:28;97377.88;;;1.31;57.46
61359;BME280;47228;46.762;23.598;2023-01-26T14:07:03;97380.62;;;1.30;57.12
61359;BME280;47228;46.762;23.598;2023-01-26T14:09:50;97373.30;;;1.28;57.18
61359;BME280;47228;46.762;23.598;2023-01-26T14:12:42;97370.16;;;1.29;57.35
61359;BME280;47228;46.762;23.598;2023-01-26T14:15:25;97370.48;;;1.32;57.31
61359;BME280;47228;46.762;23.598;2023-01-26T14:18:02;97376.31;;;1.33;57.23
61359;BME280;47228;46.762;23.598;2023-01-26T14:20:36;97377.55;;;1.31;57.31
61359;BME280;47228;46.762;23.598;2023-01-26T14:25:34;97372.55;;;1.28;57.24
61359;BME280;47228;46.762;23.598;2023-01-26T14:28:05;97364.81;;;1.27;57.37
61359;BME280;47228;46.762;23.598;2023-01-26T14:30:33;97356.30;;;1.27;57.61
61359;BME280;47228;46.762;23.598;2023-01-26T14:33:13;97354.33;;;1.27;57.58
61359;BME280;47228;46.762;23.598;2023-01-26T14:35:54;97355.56;;;1.25;57.62
61359;BME280;47228;46.762;23.598;2023-01-26T14:38:22;97351.06;;;1.23;57.54
61359;BME280;47228;46.762;23.598;2023-01-26T14:40:52;97344.23;;;1.21;57.70
61359;BME280;47228;46.762;23.598;2023-01-26T14:43:20;97340.37;;;1.22;57.96
61359;BME280;47228;46.762;23.598;2023-01-26T14:46:05;97334.84;;;1.21;57.96
61359;BME280;47228;46.762;23.598;2023-01-26T14:51:17;97325.23;;;1.17;57.98
61359;BME280;47228;46.762;23.598;2023-01-26T14:53:51;97326.66;;;1.15;58.11
61359;BME280;47228;46.762;23.598;2023-01-26T14:56:34;97321.44;;;1.13;58.20
61359;BME280;47228;46.762;23.598;2023-01-26T14:59:05;97320.23;;;1.11;58.39
61359;BME280;47228;46.762;23.598;2023-01-26T15:01:34;97320.41;;;1.09;58.41
61359;BME280;47228;46.762;23.598;2023-01-26T15:06:44;97310.95;;;1.06;58.28
61359;BME280;47228;46.762;23.598;2023-01-26T15:09:25;97306.70;;;1.05;58.31
61359;BME280;47228;46.762;23.598;2023-01-26T15:11:57;97305.43;;;1.01;58.63
61359;BME280;47228;46.762;23.598;2023-01-26T15:14:49;97302.94;;;0.98;58.19
61359;BME280;47228;46.762;23.598;2023-01-26T15:17:28;97303.68;;;0.96;58.34